createdAt,value
2019-05-21T00:00:21.113Z,98.63
2019-05-21T00:02:50.135Z,98.40
2019-05-21T00:05:18.796Z,97.87
2019-05-21T00:07:47.516Z,97.90
2019-05-21T00:10:16.328Z,98.34
2019-05-21T00:12:45.008Z,98.16
2019-05-21T00:15:13.885Z,98.47
2019-05-21T00:17:42.563Z,98.72
2019-05-21T00:20:12.936Z,98.67
2019-05-21T00:22:41.897Z,99.27
2019-05-21T00:25:10.653Z,99.19
2019-05-21T00:27:39.352Z,99.80
2019-05-21T00:30:44.064Z,99.92
2019-05-21T00:33:49.034Z,100.00
2019-05-21T00:36:57.787Z,99.56
2019-05-21T00:40:03.039Z,99.59
2019-05-21T00:42:35.705Z,99.86
2019-05-21T00:45:06.329Z,99.58
2019-05-21T00:47:34.997Z,99.23
2019-05-21T00:50:04.235Z,99.32
2019-05-21T00:52:32.907Z,99.23
2019-05-21T00:55:01.615Z,98.79
2019-05-21T00:57:30.279Z,98.76
2019-05-21T00:59:59.292Z,99.42
2019-05-21T01:02:27.983Z,98.82
2019-05-21T01:05:00.653Z,98.95
2019-05-21T01:07:27.155Z,99.43
2019-05-21T01:09:56.117Z,99.78
2019-05-21T01:14:55.985Z,99.24
2019-05-21T01:17:24.646Z,99.21
2019-05-21T01:19:53.301Z,99.35
2019-05-21T01:22:21.986Z,99.64
2019-05-21T01:24:50.676Z,99.13
2019-05-21T01:27:19.342Z,98.83
2019-05-21T01:29:48.013Z,99.37
2019-05-21T01:32:16.703Z,99.87
2019-05-21T01:34:45.371Z,100.00
2019-05-21T01:37:14.079Z,100.00
2019-05-21T01:39:42.742Z,99.90
2019-05-21T01:42:11.414Z,99.83
2019-05-21T01:44:40.098Z,99.76
2019-05-21T01:47:08.767Z,99.80
2019-05-21T01:49:37.454Z,99.94
2019-05-21T01:52:06.156Z,100.00
2019-05-21T01:54:34.847Z,100.00
2019-05-21T01:57:03.656Z,100.00
2019-05-21T01:59:32.331Z,100.00
2019-05-21T02:02:00.995Z,99.81
2019-05-21T02:04:29.710Z,99.82
2019-05-21T02:06:58.442Z,99.48
2019-05-21T02:09:27.171Z,99.52
2019-05-21T02:11:55.845Z,99.62
2019-05-21T02:14:24.619Z,98.96
2019-05-21T02:16:53.543Z,99.30
2019-05-21T02:19:22.212Z,99.40
2019-05-21T02:21:50.965Z,100.00
2019-05-21T02:24:19.638Z,99.56
2019-05-21T02:26:48.304Z,99.10
2019-05-21T02:29:16.968Z,98.66
2019-05-21T02:31:45.647Z,98.61
2019-05-21T02:34:14.308Z,98.58
2019-05-21T02:36:42.973Z,98.18
2019-05-21T02:39:11.666Z,97.62
2019-05-21T02:41:40.328Z,98.14
2019-05-21T02:44:08.997Z,97.99
2019-05-21T02:46:37.675Z,98.69
2019-05-21T02:49:06.350Z,98.33
2019-05-21T02:51:35.031Z,97.97
2019-05-21T02:54:03.701Z,97.96
2019-05-21T02:56:32.381Z,97.71
2019-05-21T02:59:01.065Z,97.28
2019-05-21T03:01:36.055Z,96.86
2019-05-21T03:04:04.830Z,97.24
2019-05-21T03:06:33.582Z,97.71
2019-05-21T03:09:02.243Z,97.84
2019-05-21T03:11:30.933Z,97.09
2019-05-21T03:13:59.716Z,96.55
2019-05-21T03:16:28.381Z,95.67
2019-05-21T03:18:57.068Z,95.93
2019-05-21T03:21:25.769Z,96.77
2019-05-21T03:23:54.429Z,96.79
2019-05-21T03:26:23.095Z,97.31
2019-05-21T03:28:51.799Z,97.44
2019-05-21T03:31:20.466Z,97.72
2019-05-21T03:33:49.143Z,97.96
2019-05-21T03:36:32.560Z,98.50
2019-05-21T03:38:48.445Z,98.78
2019-05-21T03:41:17.125Z,98.69
2019-05-21T03:43:45.999Z,97.96
2019-05-21T03:46:14.725Z,97.68
2019-05-21T03:48:43.386Z,98.30
2019-05-21T03:51:12.087Z,98.26
2019-05-21T03:53:40.746Z,97.83
2019-05-21T03:56:09.428Z,97.91
2019-05-21T03:58:38.094Z,97.96
2019-05-21T04:01:06.776Z,97.93
2019-05-21T04:03:35.626Z,97.48
2019-05-21T04:06:04.492Z,97.21
2019-05-21T04:08:33.160Z,97.54
2019-05-21T04:11:01.822Z,97.89
2019-05-21T04:13:30.489Z,97.84
2019-05-21T04:16:33.375Z,98.55
2019-05-21T04:19:08.658Z,98.37
2019-05-21T04:21:37.337Z,98.63
2019-05-21T04:24:08.629Z,98.05
2019-05-21T04:26:36.421Z,98.32
2019-05-21T04:29:05.253Z,98.52
2019-05-21T04:31:33.924Z,99.10
2019-05-21T04:34:02.639Z,99.15
2019-05-21T04:36:31.298Z,98.87
2019-05-21T04:38:59.980Z,98.66
2019-05-21T04:41:28.646Z,98.53
2019-05-21T04:43:57.386Z,98.91
2019-05-21T04:46:26.050Z,98.92
2019-05-21T04:48:54.730Z,98.92
2019-05-21T04:51:23.399Z,99.00
2019-05-21T04:53:52.059Z,99.18
2019-05-21T04:56:20.746Z,98.48
2019-05-21T04:58:49.397Z,98.35
2019-05-21T05:01:18.089Z,98.22
2019-05-21T05:03:46.764Z,98.06
2019-05-21T05:06:15.437Z,97.26
2019-05-21T05:08:44.122Z,97.37
2019-05-21T05:11:12.814Z,97.59
2019-05-21T05:13:41.494Z,96.70
2019-05-21T05:16:10.184Z,96.36
2019-05-21T05:18:38.875Z,96.97
2019-05-21T05:21:07.634Z,96.56
2019-05-21T05:23:36.301Z,95.68
2019-05-21T05:26:05.246Z,95.81
2019-05-21T05:28:33.919Z,95.99
2019-05-21T05:31:02.607Z,96.09
2019-05-21T05:33:31.291Z,95.71
2019-05-21T05:35:59.980Z,95.82
2019-05-21T05:38:28.681Z,95.91
2019-05-21T05:40:57.375Z,95.28
2019-05-21T05:43:26.041Z,95.69
2019-05-21T05:45:54.718Z,95.20
2019-05-21T05:48:23.674Z,94.75
2019-05-21T05:50:54.409Z,94.97
2019-05-21T05:53:23.085Z,93.32
2019-05-21T05:55:51.770Z,94.31
2019-05-21T05:58:20.439Z,94.15
2019-05-21T06:00:49.192Z,92.73
2019-05-21T06:03:17.902Z,93.00
2019-05-21T06:05:46.572Z,91.33
2019-05-21T06:08:15.312Z,92.14
2019-05-21T06:10:43.968Z,92.89
2019-05-21T06:13:12.632Z,92.13
2019-05-21T06:15:41.327Z,92.59
2019-05-21T06:18:12.478Z,92.86
2019-05-21T06:20:44.478Z,91.74
2019-05-21T06:23:16.521Z,92.11
2019-05-21T06:25:47.461Z,92.15
2019-05-21T06:28:19.460Z,92.90
2019-05-21T06:30:49.559Z,92.27
2019-05-21T06:33:20.934Z,92.47
2019-05-21T06:35:52.461Z,91.78
2019-05-21T06:38:23.539Z,91.42
2019-05-21T06:40:52.650Z,92.22
2019-05-21T06:43:21.321Z,91.73
2019-05-21T06:45:50.143Z,91.79
2019-05-21T06:48:18.798Z,93.53
2019-05-21T06:50:47.482Z,92.40
2019-05-21T06:53:16.164Z,93.41
2019-05-21T06:55:44.858Z,93.14
2019-05-21T06:58:13.556Z,92.57
2019-05-21T07:00:42.253Z,93.59
2019-05-21T07:03:10.907Z,93.91
2019-05-21T07:05:56.104Z,94.62
2019-05-21T07:08:09.994Z,94.23
2019-05-21T07:10:38.662Z,94.52
2019-05-21T07:13:09.842Z,94.80
2019-05-21T07:15:38.595Z,93.37
2019-05-21T07:18:07.304Z,94.08
2019-05-21T07:20:35.985Z,92.77
2019-05-21T07:23:04.931Z,92.86
2019-05-21T07:25:33.801Z,92.58
2019-05-21T07:28:02.463Z,90.84
2019-05-21T07:30:31.156Z,91.90
2019-05-21T07:32:59.910Z,91.42
2019-05-21T07:35:28.685Z,91.56
2019-05-21T07:37:57.375Z,90.71
2019-05-21T07:40:26.031Z,89.81
2019-05-21T07:42:54.694Z,91.45
2019-05-21T07:45:23.407Z,90.82
2019-05-21T07:47:52.045Z,88.30
2019-05-21T07:50:20.709Z,87.98
2019-05-21T07:52:49.398Z,86.11
2019-05-21T07:55:18.200Z,87.17
2019-05-21T07:57:46.909Z,86.68
2019-05-21T08:00:16.275Z,86.41
2019-05-21T08:02:44.958Z,85.11
2019-05-21T08:05:13.776Z,86.23
2019-05-21T08:07:42.450Z,85.61
2019-05-21T08:10:11.298Z,84.52
2019-05-21T08:12:40.183Z,84.95
2019-05-21T08:15:09.703Z,85.52
2019-05-21T08:17:38.415Z,83.82
2019-05-21T08:20:10.224Z,84.74
2019-05-21T08:22:38.727Z,84.31
2019-05-21T08:25:07.666Z,84.33
2019-05-21T08:27:36.342Z,83.57
2019-05-21T08:30:06.109Z,84.40
2019-05-21T08:32:34.769Z,85.26
2019-05-21T08:35:03.527Z,84.64
2019-05-21T08:37:32.234Z,85.93
2019-05-21T08:40:00.978Z,84.30
2019-05-21T08:42:29.645Z,83.15
2019-05-21T08:44:58.302Z,82.40
2019-05-21T08:47:27.042Z,82.58
2019-05-21T08:49:55.727Z,81.93
2019-05-21T08:52:24.396Z,81.88
2019-05-21T08:54:56.093Z,81.28
2019-05-21T08:57:23.567Z,81.10
2019-05-21T08:59:52.502Z,80.61
2019-05-21T09:02:21.166Z,79.75
2019-05-21T09:04:49.923Z,81.13
2019-05-21T09:07:18.804Z,79.23
2019-05-21T09:09:50.583Z,80.18
2019-05-21T09:12:18.066Z,80.03
2019-05-21T09:14:46.835Z,81.15
2019-05-21T09:17:15.579Z,81.67
2019-05-21T09:19:44.260Z,83.35
2019-05-21T09:22:13.024Z,82.87
2019-05-21T09:24:41.715Z,84.09
2019-05-21T09:27:10.381Z,84.74
2019-05-21T09:29:39.056Z,85.19
2019-05-21T09:32:07.804Z,86.62
2019-05-21T09:34:47.963Z,87.69
2019-05-21T09:37:19.274Z,87.39
2019-05-21T09:39:37.512Z,87.17
2019-05-21T09:42:06.169Z,87.28
2019-05-21T09:44:34.901Z,86.12
2019-05-21T09:47:03.648Z,86.89
2019-05-21T09:49:32.389Z,87.12
2019-05-21T09:52:01.051Z,88.20
2019-05-21T09:54:29.726Z,88.91
2019-05-21T09:56:58.813Z,89.48
2019-05-21T09:59:52.497Z,88.87
2019-05-21T10:02:23.118Z,88.24
2019-05-21T10:04:51.883Z,88.87
2019-05-21T10:07:38.037Z,88.83
2019-05-21T10:09:51.005Z,89.62
2019-05-21T10:12:19.672Z,89.62
2019-05-21T10:14:48.326Z,90.61
2019-05-21T10:17:17.130Z,90.02
2019-05-21T10:19:45.791Z,88.94
2019-05-21T10:22:14.538Z,88.27
2019-05-21T10:24:43.202Z,87.28
2019-05-21T10:27:11.879Z,86.77
2019-05-21T10:29:40.538Z,85.66
2019-05-21T10:32:09.514Z,86.03
2019-05-21T10:34:38.234Z,86.58
2019-05-21T10:37:07.038Z,86.31
2019-05-21T10:39:36.041Z,85.83
2019-05-21T10:42:05.068Z,85.67
2019-05-21T10:44:33.810Z,86.07
2019-05-21T10:47:02.481Z,86.00
2019-05-21T10:49:31.166Z,85.61
2019-05-21T10:51:59.863Z,86.47
2019-05-21T10:54:28.631Z,84.39
2019-05-21T10:56:57.293Z,84.12
2019-05-21T10:59:26.047Z,83.21
2019-05-21T11:02:29.178Z,82.22
2019-05-21T11:05:04.673Z,82.26
2019-05-21T11:07:33.473Z,81.14
2019-05-21T11:10:02.466Z,78.82
2019-05-21T11:12:31.360Z,77.57
2019-05-21T11:15:00.008Z,77.67
2019-05-21T11:17:28.686Z,78.99
2019-05-21T11:19:57.360Z,79.09
2019-05-21T11:22:26.117Z,80.49
2019-05-21T11:24:54.785Z,80.68
2019-05-21T11:27:23.620Z,81.00
2019-05-21T11:29:52.293Z,81.99
2019-05-21T11:32:21.029Z,80.78
2019-05-21T11:34:50.473Z,79.15
2019-05-21T11:37:19.396Z,80.55
2019-05-21T11:39:48.051Z,79.72
2019-05-21T11:42:16.709Z,79.62
2019-05-21T11:44:45.413Z,80.95
2019-05-21T11:47:14.076Z,82.40
2019-05-21T11:49:42.743Z,82.60
2019-05-21T11:52:11.898Z,82.70
2019-05-21T11:54:40.569Z,83.42
2019-05-21T11:57:09.235Z,83.26
2019-05-21T11:59:37.910Z,82.59
2019-05-21T12:02:08.812Z,83.14
2019-05-21T12:04:37.487Z,82.78
2019-05-21T12:07:06.219Z,82.53
2019-05-21T12:09:34.970Z,83.16
2019-05-21T12:12:03.660Z,83.27
2019-05-21T12:14:32.334Z,81.66
2019-05-21T12:17:00.993Z,81.39
2019-05-21T12:19:29.676Z,79.06
2019-05-21T12:21:58.347Z,80.77
2019-05-21T12:24:27.685Z,80.55
2019-05-21T12:26:56.567Z,79.81
2019-05-21T12:29:25.317Z,80.09
2019-05-21T12:31:53.967Z,79.84
2019-05-21T12:34:22.705Z,81.43
2019-05-21T12:36:51.407Z,82.53
2019-05-21T12:39:20.149Z,84.73
2019-05-21T12:41:48.800Z,86.12
2019-05-21T12:44:17.518Z,86.01
2019-05-21T12:46:46.262Z,85.55
2019-05-21T12:49:15.090Z,86.15
2019-05-21T12:51:43.971Z,86.26
2019-05-21T12:54:12.659Z,87.32
2019-05-21T12:56:41.444Z,86.89
2019-05-21T12:59:10.076Z,88.96
2019-05-21T13:01:38.727Z,89.97
2019-05-21T13:04:07.413Z,90.35
2019-05-21T13:06:36.079Z,91.67
2019-05-21T13:09:08.195Z,93.67
2019-05-21T13:11:37.165Z,94.44
2019-05-21T13:14:06.305Z,94.08
2019-05-21T13:16:35.285Z,94.50
2019-05-21T13:19:04.299Z,95.02
2019-05-21T13:21:33.046Z,93.98
2019-05-21T13:24:01.727Z,93.38
2019-05-21T13:26:30.431Z,91.76
2019-05-21T13:28:59.178Z,93.17
2019-05-21T13:31:27.924Z,92.04
2019-05-21T13:33:56.613Z,93.10
2019-05-21T13:36:25.290Z,91.23
2019-05-21T13:38:53.947Z,91.58
2019-05-21T13:41:22.699Z,90.31
2019-05-21T13:43:51.361Z,90.43
2019-05-21T13:46:20.096Z,90.32
2019-05-21T13:48:48.772Z,90.38
2019-05-21T13:51:17.483Z,89.60
2019-05-21T13:53:46.197Z,88.83
2019-05-21T13:56:15.210Z,90.10
2019-05-21T13:58:44.228Z,90.02
2019-05-21T14:01:16.109Z,88.96
2019-05-21T14:03:44.935Z,89.65
2019-05-21T14:06:13.628Z,89.70
2019-05-21T14:08:42.419Z,89.26
2019-05-21T14:11:11.530Z,89.74
2019-05-21T14:13:40.285Z,89.60
2019-05-21T14:16:08.966Z,89.55
2019-05-21T14:18:37.625Z,89.79
2019-05-21T14:21:06.310Z,90.33
2019-05-21T14:23:34.983Z,91.73
2019-05-21T14:26:03.852Z,93.50
2019-05-21T14:28:34.563Z,93.21
2019-05-21T14:31:03.391Z,93.19
2019-05-21T14:33:32.102Z,94.60
2019-05-21T14:36:00.786Z,94.58
2019-05-21T14:38:29.661Z,94.57
2019-05-21T14:40:58.424Z,92.68
2019-05-21T14:43:27.255Z,94.14
2019-05-21T14:45:55.925Z,93.63
2019-05-21T14:48:24.628Z,93.18
2019-05-21T14:50:53.288Z,93.62
2019-05-21T14:53:21.998Z,94.62
2019-05-21T14:55:50.674Z,94.94
2019-05-21T14:58:19.344Z,95.39
2019-05-21T15:00:48.209Z,96.18
2019-05-21T15:03:24.898Z,95.95
2019-05-21T15:05:47.379Z,95.95
2019-05-21T15:08:16.086Z,95.79
2019-05-21T15:10:57.492Z,94.63
2019-05-21T15:13:26.143Z,94.92
2019-05-21T15:15:54.820Z,93.31
2019-05-21T15:18:23.678Z,93.81
2019-05-21T15:21:14.752Z,92.83
2019-05-21T15:23:43.940Z,92.01
2019-05-21T15:26:13.198Z,89.54
2019-05-21T15:28:41.927Z,90.28
2019-05-21T15:31:10.591Z,89.67
2019-05-21T15:33:39.290Z,89.60
2019-05-21T15:36:08.028Z,87.82
2019-05-21T15:38:49.231Z,87.90
2019-05-21T15:41:11.920Z,86.24
2019-05-21T15:43:37.512Z,84.54
2019-05-21T15:46:06.250Z,85.50
2019-05-21T15:48:34.910Z,84.98
2019-05-21T15:51:03.663Z,85.28
2019-05-21T15:53:32.341Z,85.77
2019-05-21T15:56:01.015Z,86.37
2019-05-21T15:58:29.792Z,88.62
2019-05-21T16:00:58.607Z,87.71
2019-05-21T16:03:27.282Z,87.92
2019-05-21T16:05:55.961Z,88.77
2019-05-21T16:08:24.636Z,87.46
2019-05-21T16:10:53.403Z,87.39
2019-05-21T16:13:22.088Z,86.69
2019-05-21T16:15:50.776Z,87.46
2019-05-21T16:18:19.457Z,87.15
2019-05-21T16:20:48.122Z,88.15
2019-05-21T16:23:16.887Z,85.87
2019-05-21T16:25:45.545Z,88.29
2019-05-21T16:28:14.286Z,88.09
2019-05-21T16:30:42.964Z,87.65
2019-05-21T16:33:11.654Z,87.72
2019-05-21T16:35:40.333Z,88.21
2019-05-21T16:38:09.006Z,88.31
2019-05-21T16:40:37.775Z,89.05
2019-05-21T16:43:06.426Z,89.30
2019-05-21T16:45:35.153Z,89.28
2019-05-21T16:48:03.851Z,89.47
2019-05-21T16:50:32.545Z,89.91
2019-05-21T16:53:01.210Z,89.84
2019-05-21T16:55:29.947Z,90.05
2019-05-21T16:57:58.713Z,89.22
2019-05-21T17:00:28.571Z,89.69
2019-05-21T17:02:57.315Z,89.90
2019-05-21T17:05:26.084Z,90.45
2019-05-21T17:07:54.765Z,90.13
2019-05-21T17:10:23.440Z,90.23
2019-05-21T17:12:52.406Z,89.78
2019-05-21T17:15:21.264Z,89.34
2019-05-21T17:17:49.934Z,90.03
2019-05-21T17:20:18.769Z,89.32
2019-05-21T17:22:47.431Z,89.92
2019-05-21T17:25:16.442Z,89.91
2019-05-21T17:27:45.160Z,90.54
2019-05-21T17:30:14.277Z,89.86
2019-05-21T17:32:43.079Z,89.65
2019-05-21T17:35:12.382Z,89.55
2019-05-21T17:37:41.034Z,90.58
2019-05-21T17:40:11.867Z,89.68
2019-05-21T17:42:40.537Z,89.98
2019-05-21T17:45:09.854Z,89.86
2019-05-21T17:47:38.624Z,90.43
2019-05-21T17:50:09.233Z,90.27
2019-05-21T17:52:38.397Z,90.44
2019-05-21T17:55:07.893Z,90.77
2019-05-21T17:57:37.743Z,90.50
2019-05-21T18:00:08.013Z,90.47
2019-05-21T18:02:36.966Z,90.68
2019-05-21T18:05:07.378Z,90.50
2019-05-21T18:07:36.939Z,90.59
2019-05-21T18:10:06.785Z,90.71
2019-05-21T18:12:36.284Z,91.30
2019-05-21T18:15:05.874Z,91.32
2019-05-21T18:17:34.780Z,91.30
2019-05-21T18:20:04.429Z,91.70
2019-05-21T18:22:33.112Z,91.55
2019-05-21T18:25:01.865Z,92.00
2019-05-21T18:27:30.918Z,92.20
2019-05-21T18:30:03.194Z,91.97
2019-05-21T18:32:30.089Z,91.86
2019-05-21T18:34:58.814Z,91.97
2019-05-21T18:37:28.070Z,91.56
2019-05-21T18:39:56.767Z,91.97
2019-05-21T18:42:25.484Z,92.04
2019-05-21T18:44:54.224Z,92.18
2019-05-21T18:47:22.978Z,92.19
2019-05-21T18:49:51.746Z,92.30
2019-05-21T18:52:20.505Z,92.22
2019-05-21T18:54:49.553Z,92.29
2019-05-21T18:57:18.252Z,92.75
2019-05-21T18:59:46.939Z,93.01
2019-05-21T19:02:15.606Z,92.52
2019-05-21T19:04:44.295Z,91.92
2019-05-21T19:07:14.009Z,92.20
2019-05-21T19:09:42.842Z,92.08
2019-05-21T19:12:11.647Z,91.90
2019-05-21T19:14:44.757Z,92.11
2019-05-21T19:17:10.781Z,92.07
2019-05-21T19:19:39.445Z,92.41
2019-05-21T19:22:08.370Z,92.34
2019-05-21T19:24:37.052Z,91.87
2019-05-21T19:27:05.792Z,92.39
2019-05-21T19:29:34.560Z,92.23
2019-05-21T19:32:03.680Z,92.71
2019-05-21T19:34:32.353Z,93.07
2019-05-21T19:37:01.039Z,93.01
2019-05-21T19:39:30.333Z,93.25
2019-05-21T19:41:59.002Z,93.09
2019-05-21T19:44:27.968Z,93.36
2019-05-21T19:46:56.658Z,93.36
2019-05-21T19:49:25.346Z,93.53
2019-05-21T19:51:54.057Z,93.30
2019-05-21T19:54:23.854Z,93.18
2019-05-21T19:56:52.540Z,92.89
2019-05-21T19:59:21.575Z,92.85
2019-05-21T20:01:51.170Z,92.59
2019-05-21T20:04:21.969Z,91.91
2019-05-21T20:06:50.818Z,92.19
2019-05-21T20:09:21.324Z,91.07
2019-05-21T20:11:50.093Z,91.21
2019-05-21T20:14:19.436Z,91.40
2019-05-21T20:16:48.729Z,91.53
2019-05-21T20:19:19.466Z,90.99
2019-05-21T20:21:48.355Z,91.42
2019-05-21T20:24:17.900Z,91.65
2019-05-21T20:26:46.875Z,91.47
2019-05-21T20:29:15.960Z,90.94
2019-05-21T20:31:44.719Z,91.29
2019-05-21T20:34:13.469Z,91.41
2019-05-21T20:36:42.417Z,91.02
2019-05-21T20:39:14.634Z,91.22
2019-05-21T20:41:43.418Z,91.49
2019-05-21T20:44:14.391Z,91.63
2019-05-21T20:46:44.064Z,91.71
2019-05-21T20:49:13.386Z,91.10
2019-05-21T20:51:42.410Z,90.68
2019-05-21T20:54:13.290Z,90.79
2019-05-21T20:56:42.493Z,91.37
2019-05-21T20:59:11.469Z,91.26
2019-05-21T21:01:41.901Z,91.44
2019-05-21T21:04:11.214Z,90.94
2019-05-21T21:06:40.728Z,91.63
2019-05-21T21:09:10.293Z,91.41
2019-05-21T21:11:39.669Z,91.59
2019-05-21T21:14:18.144Z,91.82
2019-05-21T21:16:39.918Z,91.44
2019-05-21T21:19:08.597Z,91.68
2019-05-21T21:21:37.413Z,91.62
2019-05-21T21:24:06.584Z,91.32
2019-05-21T21:26:35.650Z,91.38
2019-05-21T21:29:04.574Z,91.12
2019-05-21T21:31:33.392Z,91.45
2019-05-21T21:34:02.074Z,91.58
2019-05-21T21:36:30.837Z,91.85
2019-05-21T21:38:59.675Z,91.41
2019-05-21T21:41:28.702Z,91.86
2019-05-21T21:43:57.377Z,91.20
2019-05-21T21:46:26.350Z,91.68
2019-05-21T21:48:55.408Z,91.34
2019-05-21T21:51:24.692Z,92.15
2019-05-21T21:53:53.554Z,92.01
2019-05-21T21:56:22.673Z,91.91
2019-05-21T21:58:51.498Z,91.42
2019-05-21T22:01:47.137Z,91.14
2019-05-21T22:04:20.280Z,90.46
2019-05-21T22:06:50.161Z,90.64
2019-05-21T22:09:24.482Z,91.04
2019-05-21T22:11:55.102Z,90.76
2019-05-21T22:14:23.973Z,90.98
2019-05-21T22:16:52.661Z,90.50
2019-05-21T22:19:22.631Z,89.87
2019-05-21T22:21:52.166Z,90.52
2019-05-21T22:24:21.503Z,90.68
2019-05-21T22:26:50.641Z,89.59
2019-05-21T22:29:19.620Z,90.16
2019-05-21T22:31:48.382Z,90.41
2019-05-21T22:34:17.068Z,90.64
2019-05-21T22:36:45.835Z,90.35
2019-05-21T22:39:19.347Z,90.66
2019-05-21T22:41:48.015Z,90.77
2019-05-21T22:44:16.692Z,90.78
2019-05-21T22:46:46.147Z,90.81
2019-05-21T22:49:14.837Z,90.41
2019-05-21T22:51:43.591Z,90.95
2019-05-21T22:54:12.374Z,90.71
2019-05-21T22:56:41.033Z,90.45
2019-05-21T22:59:09.701Z,90.78
2019-05-21T23:01:38.401Z,90.55
2019-05-21T23:04:07.249Z,90.27
2019-05-21T23:06:36.409Z,90.68
2019-05-21T23:09:06.677Z,90.90
2019-05-21T23:11:35.405Z,90.72
2019-05-21T23:14:04.384Z,90.77
2019-05-21T23:16:33.441Z,90.43
2019-05-21T23:19:02.288Z,90.50
2019-05-21T23:21:31.141Z,90.39
2019-05-21T23:24:02.227Z,90.54
2019-05-21T23:26:31.050Z,90.63
2019-05-21T23:29:01.405Z,90.39
2019-05-21T23:31:31.182Z,90.64
2019-05-21T23:34:00.294Z,90.52
2019-05-21T23:36:28.971Z,90.82
2019-05-21T23:38:58.979Z,90.93
2019-05-21T23:41:28.622Z,90.73
2019-05-21T23:43:57.361Z,90.84
2019-05-21T23:46:26.639Z,90.86
2019-05-21T23:48:55.381Z,91.09
2019-05-21T23:51:24.057Z,89.68
2019-05-21T23:53:52.722Z,89.71
2019-05-21T23:56:21.581Z,90.31
2019-05-21T23:58:50.358Z,89.83
